Time;durP1;ratioP1;P1;durP2;ratioP2;P2;SDS_P1;SDS_P2;PMS_P1;PMS_P2;Temp;Humidity;BMP_temperature;BMP_pressure;BME280_temperature;BME280_humidity;BME280_pressure;Samples;Min_cycle;Max_cycle;Signal;HPM_P1;HPM_P2
2024/01/27 00:02:11;;;;;;;3.40;2.13;;;4.10;79.20;;;2.89;81.24;99462.59;5137832;27;21014;-74
2024/01/27 00:04:39;;;;;;;11.03;3.10;;;4.00;79.20;;;2.59;82.24;99441.06;5138840;27;20453;-74
2024/01/27 00:07:09;;;;;;;6.60;2.60;;;4.00;79.50;;;2.70;82.83;99474.84;5128607;27;20438;-74
2024/01/27 00:09:36;;;;;;;5.83;3.10;;;3.90;79.60;;;2.65;82.45;99477.03;5149375;27;20940;-74
2024/01/27 00:12:04;;;;;;;5.33;2.27;;;3.80;79.60;;;2.45;82.74;99438.69;5120300;27;20813;-74
2024/01/27 00:14:31;;;;;;;4.53;2.33;;;3.80;79.70;;;2.61;83.15;99481.78;5128438;27;20543;-75
2024/01/27 00:16:58;;;;;;;5.33;2.20;;;3.80;79.70;;;2.67;82.88;99475.09;5149227;27;21285;-74
2024/01/27 00:19:27;;;;;;;5.67;2.33;;;3.80;79.80;;;2.58;82.89;99471.38;5143566;27;20450;-74
2024/01/27 00:21:54;;;;;;;6.33;2.20;;;3.80;79.70;;;2.57;82.86;99474.16;5129940;27;20463;-75
2024/01/27 00:24:22;;;;;;;3.77;1.93;;;3.70;79.80;;;2.51;83.29;99476.38;5143439;27;20443;-74
2024/01/27 00:26:49;;;;;;;6.57;2.10;;;3.70;80.00;;;2.45;83.40;99479.53;5134407;27;20449;-74
2024/01/27 00:29:17;;;;;;;5.37;2.77;;;3.70;80.10;;;2.44;84.13;99477.03;5150837;27;20442;-74
2024/01/27 00:31:44;;;;;;;5.17;2.30;;;3.60;80.20;;;2.04;83.77;99425.13;5144035;27;20513;-74
2024/01/27 00:34:12;;;;;;;3.83;1.87;;;3.60;80.20;;;2.39;84.30;99482.72;5125434;27;20932;-73
2024/01/27 00:36:42;;;;;;;6.10;2.90;;;3.60;80.30;;;2.37;84.13;99490.84;5125952;27;20558;-73
2024/01/27 00:39:10;;;;;;;4.30;2.30;;;3.60;80.40;;;2.29;84.18;99489.78;5149248;27;20481;-73
2024/01/27 00:41:37;;;;;;;8.00;2.47;;;3.50;80.50;;;2.21;85.34;99496.59;5127154;27;20497;-74
2024/01/27 00:44:04;;;;;;;4.80;2.67;;;3.40;80.60;;;2.26;84.99;99505.06;5130873;27;20470;-74
2024/01/27 00:46:32;;;;;;;3.27;2.37;;;3.40;80.90;;;2.23;85.24;99510.66;5140985;27;20515;-74
2024/01/27 00:48:59;;;;;;;6.10;2.40;;;3.40;80.80;;;2.18;84.65;99517.34;5147101;27;21143;-72
2024/01/27 00:51:26;;;;;;;5.00;2.40;;;3.40;80.90;;;2.09;85.21;99508.28;5146763;27;20482;-74
2024/01/27 00:53:55;;;;;;;7.03;2.80;;;3.40;81.00;;;2.12;85.64;99519.53;5124692;27;20543;-74
2024/01/27 00:56:22;;;;;;;5.07;2.30;;;3.30;81.20;;;2.04;85.84;99526.44;5128514;27;20461;-74
2024/01/27 00:58:49;;;;;;;9.37;2.97;;;3.20;81.30;;;1.89;86.20;99513.38;5130917;27;20490;-74
2024/01/27 01:01:16;;;;;;;7.10;3.03;;;3.20;81.80;;;1.87;86.58;99525.13;5149176;27;20441;-74
2024/01/27 01:03:45;;;;;;;6.83;2.90;;;3.20;81.70;;;1.92;86.60;99542.47;5148318;27;20463;-73
2024/01/27 01:06:12;;;;;;;8.73;3.30;;;3.10;81.80;;;1.88;86.67;99543.66;5122991;27;21119;-73
2024/01/27 01:08:39;;;;;;;4.07;2.50;;;3.10;82.00;;;1.77;86.68;99514.38;5128152;27;20452;-74
2024/01/27 01:11:08;;;;;;;12.00;3.00;;;3.10;82.00;;;1.82;87.50;99544.16;5125694;27;20903;-74
2024/01/27 01:13:36;;;;;;;5.70;2.20;;;3.10;82.10;;;1.78;87.53;99540.06;5131165;27;20966;-74
2024/01/27 01:16:04;;;;;;;7.10;2.93;;;3.00;82.30;;;1.74;87.27;99546.56;5131962;27;21126;-74
2024/01/27 01:18:31;;;;;;;7.97;2.73;;;2.90;82.60;;;1.73;87.61;99551.06;5128619;27;20494;-74
2024/01/27 01:20:59;;;;;;;6.90;2.63;;;3.00;82.60;;;1.73;87.65;99551.06;5149694;27;20455;-74
2024/01/27 01:23:26;;;;;;;5.03;2.13;;;2.90;82.60;;;1.75;87.26;99551.78;5150478;27;20455;-76
2024/01/27 01:25:53;;;;;;;6.70;2.60;;;2.90;82.70;;;1.70;87.63;99552.16;5127209;27;20449;-75
2024/01/27 01:28:22;;;;;;;4.97;2.70;;;2.90;82.80;;;1.68;87.62;99551.44;5146321;27;20447;-75
2024/01/27 01:30:50;;;;;;;9.07;3.30;;;2.80;83.10;;;1.57;87.89;99540.75;5144981;27;20439;-74
2024/01/27 01:33:17;;;;;;;6.77;2.47;;;2.80;83.10;;;1.62;88.30;99549.25;5150651;27;20445;-73
2024/01/27 01:35:45;;;;;;;8.80;2.57;;;2.70;83.30;;;1.48;88.79;99554.81;5146388;27;20463;-75
2024/01/27 01:38:12;;;;;;;4.97;2.27;;;2.60;83.50;;;1.35;89.41;99550.44;5123184;27;20476;-75
2024/01/27 01:40:40;;;;;;;3.77;2.63;;;2.50;84.20;;;1.28;89.72;99530.53;5150296;27;20459;-76
2024/01/27 01:43:12;;;;;;;10.07;3.20;;;2.50;84.80;;;1.43;89.35;99552.50;5131257;27;20447;-76
2024/01/27 01:45:40;;;;;;;8.50;2.53;;;2.60;84.70;;;1.42;89.17;99559.63;5149748;27;20484;-74
2024/01/27 01:48:09;;;;;;;8.67;2.80;;;2.60;84.40;;;1.35;89.05;99558.41;5126811;27;20445;-75
2024/01/27 01:50:36;;;;;;;5.87;2.60;;;2.60;84.30;;;1.41;89.09;99573.91;5149337;27;20475;-74
2024/01/27 01:53:05;;;;;;;5.73;2.73;;;2.60;84.40;;;1.35;89.43;99562.88;5156595;27;20549;-75
2024/01/27 01:55:32;;;;;;;5.03;2.50;;;2.60;84.50;;;1.34;89.69;99572.69;5148527;27;20448;-75
2024/01/27 01:58:00;;;;;;;5.60;2.20;;;2.50;84.50;;;1.22;89.92;99547.88;5146690;27;20525;-75
2024/01/27 02:00:27;;;;;;;9.10;2.70;;;2.50;84.90;;;1.26;89.70;99580.41;5149022;27;20451;-76
2024/01/27 02:02:56;;;;;;;6.40;2.53;;;2.50;84.80;;;1.21;89.41;99558.63;5146960;27;20467;-75
2024/01/27 02:05:23;;;;;;;6.87;2.60;;;2.50;84.90;;;1.32;89.46;99569.31;5146981;27;20452;-75
2024/01/27 02:07:50;;;;;;;9.70;2.60;;;2.50;84.90;;;1.26;89.65;99575.09;5138861;27;20448;-74
2024/01/27 02:10:20;;;;;;;7.93;2.80;;;2.40;84.70;;;1.21;90.39;99582.59;5132219;27;20447;-76
2024/01/27 02:12:47;;;;;;;6.60;2.77;;;2.40;85.10;;;0.75;90.35;99513.25;5130820;27;20816;-75
2024/01/27 02:15:15;;;;;;;4.83;2.57;;;2.30;85.50;;;1.18;90.65;99566.84;5130537;27;20496;-76
2024/01/27 02:17:42;;;;;;;8.00;3.00;;;2.30;85.90;;;1.17;90.52;99573.16;5129344;27;20453;-74
2024/01/27 02:20:12;;;;;;;4.03;3.00;;;2.30;85.80;;;1.11;90.86;99574.47;5147453;27;20538;-75
2024/01/27 02:22:39;;;;;;;11.73;3.10;;;2.30;86.10;;;1.09;91.01;99579.06;5139238;27;21224;-75
2024/01/27 02:25:09;;;;;;;9.23;3.20;;;2.30;86.40;;;1.10;90.98;99572.75;5123335;27;20478;-76
2024/01/27 02:27:36;;;;;;;4.70;2.63;;;2.30;86.30;;;1.05;90.81;99581.09;5123242;27;20464;-76
2024/01/27 02:30:04;;;;;;;5.77;3.30;;;2.30;86.40;;;1.12;90.79;99600.94;5129000;27;20457;-75
2024/01/27 02:32:31;;;;;;;12.07;3.20;;;2.30;86.20;;;1.17;90.72;99591.78;5125021;27;21137;-75
2024/01/27 02:34:58;;;;;;;6.57;2.50;;;2.30;86.20;;;1.04;90.35;99574.06;5144319;27;20917;-76
2024/01/27 02:37:26;;;;;;;6.60;2.53;;;2.40;85.50;;;1.14;90.42;99603.50;5140629;27;20614;-77
2024/01/27 02:39:53;;;;;;;5.33;2.50;;;2.40;85.50;;;1.02;90.00;99589.31;5133963;27;20476;-76
2024/01/27 02:42:22;;;;;;;5.07;2.70;;;2.40;85.30;;;1.08;90.26;99603.97;5131169;27;20443;-75
2024/01/27 02:44:49;;;;;;;3.57;2.43;;;2.30;85.30;;;1.09;89.96;99611.84;5129017;27;20470;-74
2024/01/27 02:47:16;;;;;;;11.20;3.00;;;2.30;85.10;;;1.01;90.02;99616.91;5123344;27;20883;-75
2024/01/27 02:49:43;;;;;;;3.67;2.90;;;2.30;85.10;;;0.97;90.67;99618.06;5124944;27;20453;-76
2024/01/27 02:52:11;;;;;;;5.00;3.03;;;2.20;85.50;;;0.98;90.72;99630.41;5142431;27;20440;-74
2024/01/27 02:54:38;;;;;;;6.27;2.67;;;2.20;85.60;;;0.95;90.66;99628.00;5145222;27;20447;-74
2024/01/27 02:57:05;;;;;;;8.43;4.50;;;2.20;86.00;;;0.92;90.81;99625.56;5121627;27;20457;-75
2024/01/27 02:59:35;;;;;;;6.13;2.53;;;2.10;86.20;;;0.89;91.12;99631.13;5116750;27;20843;-75
2024/01/27 03:02:02;;;;;;;6.27;2.90;;;2.10;86.00;;;0.90;91.00;99638.97;5120931;27;20462;-75
2024/01/27 03:04:29;;;;;;;3.97;2.50;;;2.10;86.20;;;0.88;91.11;99637.41;5126261;27;20446;-76
2024/01/27 03:06:57;;;;;;;5.63;3.13;;;2.10;86.20;;;0.79;91.68;99634.44;5122189;27;20452;-76
2024/01/27 03:09:24;;;;;;;7.37;2.90;;;2.10;86.20;;;0.82;91.53;99631.56;5141950;27;20469;-75
2024/01/27 03:11:52;;;;;;;4.70;2.80;;;2.00;86.50;;;0.78;91.61;99634.59;5117471;27;20963;-76
2024/01/27 03:14:19;;;;;;;3.10;2.00;;;2.00;86.70;;;0.80;91.72;99637.97;5132739;27;20461;-76
2024/01/27 03:16:48;;;;;;;7.90;3.80;;;2.00;86.90;;;0.76;91.10;99632.03;5126998;27;20440;-75
2024/01/27 03:19:15;;;;;;;8.80;3.33;;;2.00;86.60;;;0.78;91.38;99639.91;5128162;27;20472;-78
2024/01/27 03:21:42;;;;;;;4.40;2.70;;;1.90;86.70;;;0.38;91.61;99579.78;5117819;28;20457;-78
2024/01/27 03:24:10;;;;;;;6.63;2.83;;;1.90;86.70;;;0.63;91.76;99634.75;5138795;27;20462;-76
2024/01/27 03:26:37;;;;;;;5.10;3.03;;;1.90;86.70;;;0.53;92.31;99631.91;5143261;27;20765;-74
2024/01/27 03:29:03;;;;;;;6.00;2.90;;;1.80;87.00;;;0.46;91.89;99620.00;5140703;27;20453;-76
2024/01/27 03:31:34;;;;;;;7.63;2.90;;;1.80;87.30;;;0.67;91.26;99653.97;5121856;27;20449;-76
2024/01/27 03:34:04;;;;;;;6.73;2.83;;;1.80;86.90;;;0.12;91.88;99586.03;5134278;27;20457;-75
2024/01/27 03:36:31;;;;;;;7.60;2.70;;;1.70;86.90;;;0.54;92.47;99654.88;5122729;27;20939;-76
2024/01/27 03:38:59;;;;;;;7.20;3.10;;;1.70;87.60;;;0.47;92.59;99658.94;5119580;27;20486;-75
2024/01/27 03:41:27;;;;;;;4.97;2.80;;;1.70;87.50;;;0.39;92.81;99672.78;5128306;27;20559;-77
2024/01/27 03:43:54;;;;;;;9.80;3.50;;;1.60;87.70;;;0.42;93.06;99658.41;5140518;27;20471;-75
2024/01/27 03:46:21;;;;;;;10.30;3.67;;;1.60;88.50;;;0.27;92.94;99642.59;5144734;27;20456;-75
2024/01/27 03:48:49;;;;;;;7.50;3.27;;;1.60;88.50;;;0.39;93.09;99656.00;5126681;27;20457;-77
2024/01/27 03:51:17;;;;;;;7.80;3.57;;;1.50;88.90;;;0.33;93.02;99645.75;5152042;27;20455;-74
2024/01/27 03:53:45;;;;;;;7.47;3.00;;;1.60;89.00;;;0.39;93.10;99656.00;5149259;27;20995;-74
2024/01/27 03:56:13;;;;;;;6.80;2.87;;;1.50;88.80;;;0.40;92.75;99663.84;5139586;27;20504;-75
2024/01/27 03:58:40;;;;;;;7.77;3.07;;;1.60;88.60;;;0.39;92.46;99670.13;5144356;27;20474;-75
2024/01/27 04:01:07;;;;;;;7.43;3.40;;;1.60;88.20;;;0.27;93.00;99674.50;5128546;27;20447;-75
2024/01/27 04:03:35;;;;;;;8.40;3.57;;;1.50;88.20;;;0.24;93.64;99681.84;5124738;27;20457;-76
2024/01/27 04:06:03;;;;;;;6.40;3.47;;;1.40;88.30;;;0.11;93.46;99658.78;5147269;27;20963;-76
2024/01/27 04:08:32;;;;;;;7.30;3.17;;;1.40;89.10;;;0.24;93.71;99672.06;5144110;27;21165;-76
2024/01/27 04:10:59;;;;;;;6.20;3.00;;;1.40;89.20;;;0.38;92.78;99686.16;5126263;27;20542;-76
2024/01/27 04:13:27;;;;;;;9.10;3.17;;;1.50;89.10;;;0.27;93.04;99689.59;5130025;27;20903;-75
2024/01/27 04:15:54;;;;;;;6.00;3.00;;;1.50;88.20;;;0.23;92.98;99675.69;5142339;27;20514;-77
2024/01/27 04:18:21;;;;;;;6.80;3.50;;;1.50;88.30;;;0.31;92.88;99693.75;5140291;27;20461;-76
2024/01/27 04:20:48;;;;;;;9.53;3.10;;;1.50;88.70;;;0.24;92.95;99685.38;5144380;27;20452;-75
2024/01/27 04:23:16;;;;;;;7.10;3.40;;;1.50;88.10;;;0.10;93.12;99677.50;5123379;27;21002;-76
2024/01/27 04:25:45;;;;;;;6.23;3.20;;;1.40;88.20;;;0.31;92.78;99690.22;5144248;27;20997;-76
2024/01/27 04:28:12;;;;;;;7.93;3.60;;;1.40;88.90;;;0.29;92.74;99695.66;5122609;27;20454;-75
2024/01/27 04:30:40;;;;;;;8.30;2.97;;;1.40;88.60;;;0.20;93.20;99699.81;5123281;27;20480;-75
2024/01/27 04:33:07;;;;;;;10.70;3.80;;;1.30;88.80;;;0.14;93.23;99702.91;5142292;27;20461;-74
2024/01/27 04:35:35;;;;;;;8.30;4.50;;;1.30;88.90;;;0.02;94.09;99699.31;5123525;27;20449;-73
2024/01/27 04:38:03;;;;;;;7.23;3.67;;;1.10;89.30;;;-0.06;94.66;99694.53;5138685;27;20448;-75
2024/01/27 04:40:30;;;;;;;8.07;3.70;;;1.00;90.10;;;-0.06;95.02;99702.50;5138698;27;20475;-76
2024/01/27 04:42:59;;;;;;;7.73;4.07;;;1.00;90.40;;;-0.04;95.17;99708.56;5129240;27;20452;-76
2024/01/27 04:45:27;;;;;;;12.63;4.77;;;0.90;90.80;;;-0.21;94.72;99679.63;5121268;27;21034;-76
2024/01/27 04:47:54;;;;;;;8.07;4.10;;;0.90;91.10;;;-0.06;95.15;99710.47;5144147;27;20545;-75
2024/01/27 04:50:21;;;;;;;11.03;3.90;;;0.90;91.40;;;-0.15;94.84;99713.75;5140571;27;20462;-76
2024/01/27 04:52:49;;;;;;;13.53;3.90;;;0.80;91.30;;;-0.16;95.47;99727.97;5138417;27;20460;-76
2024/01/27 04:55:17;;;;;;;8.13;4.13;;;0.70;91.60;;;-0.26;95.60;99716.28;5123480;27;20913;-76
2024/01/27 04:57:45;;;;;;;14.97;3.70;;;0.70;91.70;;;-0.53;95.32;99653.44;5128014;27;20521;-76
2024/01/27 05:00:15;;;;;;;10.47;4.43;;;0.70;92.50;;;-0.25;95.98;99716.19;5145567;27;20471;-75
2024/01/27 05:02:43;;;;;;;7.40;4.33;;;0.70;92.10;;;-0.44;96.49;99696.19;5125435;27;20459;-75
2024/01/27 05:05:11;;;;;;;13.33;4.73;;;0.70;92.10;;;-0.36;97.17;99719.56;5149872;27;20467;-75
2024/01/27 05:07:39;;;;;;;7.60;4.70;;;0.70;92.30;;;-0.43;97.33;99712.94;5131113;27;20460;-74
2024/01/27 05:10:10;;;;;;;7.10;4.40;;;0.60;92.40;;;-0.55;97.38;99724.38;5147977;27;20450;-75
2024/01/27 05:12:37;;;;;;;6.80;4.30;;;0.50;92.50;;;-0.65;98.67;99708.22;5126747;27;20451;-75
2024/01/27 05:15:05;;;;;;;14.33;5.00;;;0.50;92.80;;;-0.63;99.38;99728.41;5125370;27;20443;-75
2024/01/27 05:17:34;;;;;;;10.23;4.67;;;0.50;93.10;;;-0.62;99.80;99732.78;5147903;27;20458;-75
2024/01/27 05:20:04;;;;;;;7.40;4.03;;;0.40;93.40;;;-0.68;100.00;99730.53;5146163;27;20507;-75
2024/01/27 05:22:31;;;;;;;7.43;3.83;;;0.40;93.70;;;-0.73;100.00;99729.97;5127412;27;20458;-76
2024/01/27 05:24:59;;;;;;;10.80;5.67;;;0.30;94.00;;;-0.73;100.00;99724.66;5126536;27;20543;-76
2024/01/27 05:27:26;;;;;;;13.27;5.63;;;0.40;94.60;;;-0.66;99.97;99741.03;5147932;27;20451;-75
2024/01/27 05:29:53;;;;;;;12.47;4.90;;;0.40;94.70;;;-0.53;99.82;99744.59;5149506;27;20455;-77
2024/01/27 05:32:21;;;;;;;10.60;4.33;;;0.40;94.80;;;-0.38;98.59;99733.91;5130045;27;20439;-76
2024/01/27 05:34:50;;;;;;;10.57;5.30;;;0.50;95.70;;;-0.47;98.74;99748.66;5122429;27;20457;-76
2024/01/27 05:37:17;;;;;;;7.87;4.87;;;0.50;94.50;;;-0.45;99.06;99752.03;5123009;27;20467;-76
2024/01/27 05:39:45;;;;;;;11.80;4.80;;;0.50;94.50;;;-0.54;99.16;99747.34;5140533;27;20488;-76
2024/01/27 05:42:12;;;;;;;9.27;5.33;;;0.50;94.10;;;-0.38;98.17;99742.72;5148330;27;20445;-74
2024/01/27 05:44:40;;;;;;;10.60;4.20;;;0.60;94.40;;;-0.27;96.59;99741.13;5150832;27;20448;-76
2024/01/27 05:47:10;;;;;;;9.67;4.50;;;0.70;93.50;;;-0.34;96.87;99748.66;5127414;27;21018;-76
2024/01/27 05:49:37;;;;;;;6.17;4.50;;;0.70;92.90;;;-0.54;96.93;99726.97;5146679;27;20448;-76
2024/01/27 05:52:07;;;;;;;10.83;4.90;;;0.60;92.40;;;-0.34;96.99;99753.97;5139392;27;20513;-78
2024/01/27 05:54:34;;;;;;;14.53;4.60;;;0.60;92.80;;;-0.43;97.44;99752.78;5126891;27;20451;-76
2024/01/27 05:57:03;;;;;;;9.00;4.57;;;0.60;92.30;;;-0.48;97.66;99754.91;5147959;27;20447;-76
2024/01/27 05:59:30;;;;;;;6.50;4.07;;;0.60;92.40;;;-0.51;97.39;99758.63;5143445;27;20478;-74
2024/01/27 06:01:58;;;;;;;9.00;4.50;;;0.50;92.70;;;-0.50;97.77;99759.47;5125015;27;20458;-78
2024/01/27 06:04:25;;;;;;;9.80;4.70;;;0.40;93.10;;;-0.34;96.92;99760.16;5118197;27;20815;-77
2024/01/27 06:06:52;;;;;;;8.57;4.63;;;0.60;93.70;;;-0.36;96.69;99761.19;5123347;27;20539;-73
2024/01/27 06:09:22;;;;;;;13.20;5.77;;;0.60;93.00;;;-0.40;95.99;99747.28;5124516;27;20445;-75
2024/01/27 06:11:49;;;;;;;14.03;4.90;;;0.60;92.40;;;-0.48;96.30;99768.19;5139839;27;20457;-77
2024/01/27 06:14:17;;;;;;;8.70;4.37;;;0.60;92.20;;;-0.57;97.22;99769.66;5139124;27;20432;-74
2024/01/27 06:16:44;;;;;;;8.17;4.07;;;0.50;92.10;;;-0.61;96.92;99763.69;5143240;27;20456;-77
2024/01/27 06:19:11;;;;;;;15.17;4.90;;;0.50;92.60;;;-0.47;96.37;99770.72;5136400;27;20472;-77
2024/01/27 06:21:39;;;;;;;9.40;4.20;;;0.70;92.40;;;-0.43;96.60;99772.25;5139766;27;20552;-75
2024/01/27 06:24:07;;;;;;;15.50;4.77;;;0.60;92.20;;;-0.39;95.51;99772.88;5139866;27;20494;-76
2024/01/27 06:26:35;;;;;;;8.20;4.37;;;0.70;92.20;;;-0.39;95.53;99770.22;5128564;27;20459;-76
2024/01/27 06:29:04;;;;;;;10.30;4.40;;;0.60;91.60;;;-0.36;95.74;99787.75;5141163;27;20554;-76
2024/01/27 06:31:31;;;;;;;8.07;3.93;;;0.60;91.60;;;-0.40;95.11;99771.16;5147544;27;20444;-77
2024/01/27 06:33:58;;;;;;;6.77;4.40;;;0.60;91.40;;;-0.36;95.64;99779.81;5130195;27;21042;-76
2024/01/27 06:36:27;;;;;;;11.60;4.30;;;0.70;91.20;;;-0.34;95.09;99776.09;5127670;27;20449;-76
2024/01/27 06:38:54;;;;;;;8.53;4.90;;;0.70;91.40;;;-0.33;95.30;99777.78;5137393;27;20550;-75
2024/01/27 06:41:22;;;;;;;9.50;4.37;;;0.70;91.20;;;-0.26;95.06;99790.66;5142542;27;20562;-75
2024/01/27 06:43:50;;;;;;;9.10;4.20;;;0.80;91.00;;;-0.38;95.45;99790.53;5136471;27;20449;-76
2024/01/27 06:46:18;;;;;;;10.93;4.13;;;0.70;90.90;;;-0.41;95.74;99790.72;5125547;27;20448;-77
2024/01/27 06:48:45;;;;;;;11.47;4.03;;;0.70;91.00;;;-0.42;95.02;99807.63;5142083;27;20449;-75
2024/01/27 06:51:13;;;;;;;11.83;4.93;;;0.60;90.70;;;-0.46;95.16;99793.69;5146249;27;20452;-77
2024/01/27 06:53:40;;;;;;;10.03;4.70;;;0.60;90.80;;;-0.50;94.83;99780.72;5140104;27;20467;-74
2024/01/27 06:56:08;;;;;;;18.07;5.10;;;0.60;91.50;;;-0.43;94.88;99808.56;5145653;27;20939;-75
2024/01/27 06:58:36;;;;;;;12.50;4.30;;;0.60;91.10;;;-0.59;95.24;99787.50;5140268;27;20808;-76
2024/01/27 07:01:05;;;;;;;10.03;4.10;;;0.70;90.80;;;-0.53;95.71;99796.84;5123221;27;21076;-74
2024/01/27 07:03:34;;;;;;;22.97;5.73;;;0.60;90.90;;;-0.44;95.70;99794.44;5124336;27;20868;-74
2024/01/27 07:06:04;;;;;;;11.93;4.27;;;0.70;91.10;;;-0.39;95.37;99794.13;5122479;27;20529;-76
2024/01/27 07:08:32;;;;;;;10.60;4.53;;;0.70;90.90;;;-0.13;94.77;99794.19;5139028;27;20455;-77
2024/01/27 07:11:00;;;;;;;14.07;4.57;;;0.90;90.90;;;-0.24;93.75;99794.06;5119411;27;20447;-72
2024/01/27 07:13:29;;;;;;;16.03;4.33;;;0.90;90.00;;;-0.25;93.59;99808.31;5116414;27;20511;-73
2024/01/27 07:15:57;;;;;;;11.70;5.53;;;0.80;89.60;;;-0.36;93.87;99809.88;5136148;27;20456;-71
2024/01/27 07:18:26;;;;;;;11.30;4.90;;;0.70;89.70;;;-0.35;94.27;99808.94;5136143;27;20451;-72
2024/01/27 07:20:59;;;;;;;11.13;4.47;;;0.70;90.20;;;-0.32;94.41;99805.19;5132064;27;20478;-73
2024/01/27 07:23:27;;;;;;;11.53;4.77;;;0.70;90.60;;;-0.33;93.98;99803.50;5119870;27;20552;-69
2024/01/27 07:25:57;;;;;;;6.50;4.17;;;0.70;90.40;;;-0.29;94.48;99815.66;5124860;27;20537;-71
2024/01/27 07:28:26;;;;;;;10.03;4.67;;;0.70;90.60;;;-0.30;94.26;99821.91;5134460;27;20954;-73
2024/01/27 07:30:54;;;;;;;11.47;5.10;;;0.80;90.40;;;-0.18;93.68;99833.53;5105891;27;20476;-72
2024/01/27 07:33:21;;;;;;;9.17;4.77;;;0.90;90.20;;;-0.10;92.65;99835.66;5120933;27;20451;-73
2024/01/27 07:35:51;;;;;;;14.17;5.77;;;0.90;89.90;;;-0.05;92.92;99837.06;5106127;27;20453;-71
2024/01/27 07:38:21;;;;;;;10.67;4.73;;;0.90;90.00;;;-0.16;92.47;99827.13;5122191;27;20704;-73
2024/01/27 07:40:50;;;;;;;14.27;4.97;;;0.90;90.00;;;-0.11;92.89;99829.50;5116539;27;21000;-70
2024/01/27 07:43:18;;;;;;;7.43;5.07;;;1.10;90.00;;;-0.02;91.80;99838.66;5120251;27;20476;-71
2024/01/27 07:45:52;;;;;;;8.30;5.00;;;1.10;88.70;;;0.04;91.55;99843.56;5104501;27;20481;-73
2024/01/27 07:48:21;;;;;;;13.10;5.17;;;1.20;87.60;;;0.08;91.41;99839.75;5118348;27;20575;-72
2024/01/27 07:50:51;;;;;;;8.63;4.80;;;1.20;87.30;;;0.16;90.67;99835.75;5107554;27;20464;-71
2024/01/27 07:53:21;;;;;;;12.53;5.17;;;1.20;86.90;;;0.10;90.99;99847.63;5124963;27;20511;-71
2024/01/27 07:55:59;;;;;;;6.63;5.10;;;1.20;86.60;;;0.12;91.37;99856.34;5121460;27;20481;-69
2024/01/27 07:58:28;;;;;;;11.93;5.60;;;1.20;86.80;;;0.14;91.32;99865.06;5123225;27;20759;-73
2024/01/27 08:01:00;;;;;;;13.60;5.53;;;1.20;86.40;;;0.09;90.90;99860.06;5107819;27;20503;-74
2024/01/27 08:03:38;;;;;;;11.57;5.30;;;1.20;86.80;;;0.21;91.54;99866.34;5132025;27;20547;-73
2024/01/27 08:06:17;;;;;;;8.70;5.50;;;1.30;87.00;;;0.22;91.02;99860.06;5135681;27;20568;-73
2024/01/27 08:08:46;;;;;;;9.17;5.30;;;1.30;86.90;;;0.46;90.43;99859.38;5114037;27;20979;-73
2024/01/27 08:12:33;;;;;;;21.27;5.47;;;1.30;87.80;;;0.48;89.89;99857.44;5118039;27;20463;-75
2024/01/27 08:15:02;;;;;;;13.30;4.83;;;1.40;87.00;;;0.51;89.18;99861.72;5121475;27;20875;-74
2024/01/27 08:17:32;;;;;;;8.33;4.20;;;1.50;85.90;;;0.45;89.24;99839.06;5121599;27;20547;-73
2024/01/27 08:20:00;;;;;;;10.90;5.13;;;1.50;86.00;;;0.65;88.07;99839.47;5133134;27;20472;-72
2024/01/27 08:22:29;;;;;;;9.63;5.70;;;1.60;85.60;;;0.76;87.06;99850.22;5138779;27;20453;-73
2024/01/27 08:24:57;;;;;;;9.80;5.07;;;1.70;84.60;;;0.58;87.38;99851.50;5119597;27;20956;-72
2024/01/27 08:27:26;;;;;;;12.07;5.30;;;1.70;84.30;;;0.77;87.18;99857.25;5127635;27;20449;-72
2024/01/27 08:29:54;;;;;;;14.20;5.60;;;1.80;84.00;;;0.94;87.57;99853.41;5141348;27;20452;-74
2024/01/27 08:32:22;;;;;;;11.30;4.67;;;2.00;84.40;;;0.90;86.98;99848.41;5139977;27;20468;-72
2024/01/27 08:34:50;;;;;;;11.23;5.00;;;2.00;83.20;;;0.94;86.05;99855.22;5124413;27;20451;-69
2024/01/27 08:37:23;;;;;;;8.33;4.47;;;2.10;82.70;;;1.00;86.20;99852.13;5121776;27;20541;-72
2024/01/27 08:39:54;;;;;;;9.93;4.70;;;2.10;82.70;;;0.89;86.37;99850.19;5107100;27;20435;-69
2024/01/27 08:42:22;;;;;;;10.07;5.37;;;2.10;82.50;;;0.93;86.23;99850.84;5120828;27;20453;-72
2024/01/27 08:44:49;;;;;;;14.03;5.00;;;2.10;82.50;;;0.96;86.26;99856.81;5132558;27;20548;-70
2024/01/27 08:47:18;;;;;;;7.77;5.10;;;2.10;82.50;;;1.06;85.92;99861.47;5139574;27;20509;-71
2024/01/27 08:49:50;;;;;;;6.73;4.57;;;2.20;82.70;;;1.19;85.67;99862.28;5134464;27;20449;-71
2024/01/27 08:52:18;;;;;;;7.40;4.33;;;2.30;82.60;;;1.23;85.44;99862.94;5123966;27;20538;-71
2024/01/27 08:54:46;;;;;;;8.90;5.20;;;2.30;82.40;;;1.28;84.87;99860.78;5140499;27;20493;-79
2024/01/27 08:57:15;;;;;;;10.57;5.00;;;2.40;81.90;;;1.31;84.25;99873.03;5121245;27;20468;-74
2024/01/27 08:59:43;;;;;;;8.33;4.90;;;2.40;81.80;;;1.41;83.91;99872.25;5126727;27;20468;-74
2024/01/27 09:02:12;;;;;;;8.43;4.77;;;2.50;81.50;;;1.52;83.56;99871.50;5132729;27;21178;-81
2024/01/27 09:04:40;;;;;;;7.77;4.70;;;2.60;81.60;;;1.24;83.23;99814.91;5144374;27;20548;-78
2024/01/27 09:07:07;;;;;;;7.70;5.07;;;2.60;81.30;;;1.64;83.40;99871.53;5142667;27;20448;-75
2024/01/27 09:09:34;;;;;;;10.40;4.87;;;2.70;81.30;;;1.69;83.27;99880.91;5113926;27;20516;-76
2024/01/27 09:12:02;;;;;;;12.67;5.10;;;2.70;81.10;;;1.34;81.61;99814.22;5130228;27;20451;-79
2024/01/27 09:14:37;;;;;;;15.57;4.50;;;2.90;80.30;;;1.64;80.99;99875.06;5150355;27;20456;-77
2024/01/27 09:17:04;;;;;;;9.97;4.43;;;2.90;79.70;;;1.77;80.83;99890.16;5141476;27;20881;-76
2024/01/27 09:19:32;;;;;;;10.20;4.30;;;3.00;79.40;;;1.85;81.13;99879.78;5136716;27;20459;-76
2024/01/27 09:22:01;;;;;;;7.57;3.80;;;3.00;79.50;;;1.88;80.48;99858.22;5135602;27;20819;-73
2024/01/27 09:24:31;;;;;;;9.10;4.20;;;3.10;79.20;;;2.01;79.83;99875.97;5122563;27;20456;-73
2024/01/27 09:27:01;;;;;;;9.50;4.40;;;3.10;79.00;;;2.10;79.57;99883.28;5140173;27;20490;-75
2024/01/27 09:29:31;;;;;;;12.60;4.57;;;3.10;78.80;;;2.10;79.61;99867.28;5128462;27;20491;-77
2024/01/27 09:31:58;;;;;;;10.70;4.47;;;3.20;78.80;;;2.32;78.73;99900.34;5151082;27;20932;-83
2024/01/27 09:34:27;;;;;;;11.37;5.03;;;3.30;78.70;;;2.32;78.92;99900.34;5144212;27;20444;-75
2024/01/27 09:36:55;;;;;;;12.43;4.90;;;3.40;78.60;;;2.35;78.50;99910.75;5151828;27;20474;-81
2024/01/27 09:39:22;;;;;;;10.83;4.77;;;3.40;78.30;;;2.42;79.42;99893.34;5133164;27;20452;-81
2024/01/27 09:41:52;;;;;;;10.30;4.67;;;3.50;78.80;;;2.59;77.82;99899.22;5139467;27;20477;-77
2024/01/27 09:44:23;;;;;;;8.20;3.83;;;3.60;78.50;;;2.75;77.31;99899.72;5150738;27;20890;-79
2024/01/27 09:46:52;;;;;;;6.63;4.33;;;3.80;78.20;;;2.76;77.02;99888.06;5147412;27;20602;-77
2024/01/27 09:49:19;;;;;;;9.63;4.73;;;3.80;77.60;;;2.79;76.36;99885.16;5127158;27;21006;-83
2024/01/27 09:51:48;;;;;;;11.53;4.60;;;3.90;77.30;;;2.81;76.63;99885.91;5130306;27;20499;-82
2024/01/27 09:54:17;;;;;;;10.77;3.70;;;4.00;77.40;;;2.96;76.28;99901.72;5129497;27;20960;-81
2024/01/27 09:56:47;;;;;;;12.00;3.57;;;4.00;77.30;;;2.98;74.98;99892.59;5149147;27;20444;-82
2024/01/27 09:59:18;;;;;;;10.00;3.53;;;4.10;76.60;;;3.03;75.05;99897.56;5132345;27;21106;-83
2024/01/27 10:01:47;;;;;;;15.33;3.80;;;4.10;76.30;;;3.22;74.30;99896.97;5131460;27;20563;-80
2024/01/27 10:04:16;;;;;;;10.33;3.80;;;4.20;76.40;;;3.40;72.86;99905.31;5133969;27;20444;-83
2024/01/27 10:06:43;;;;;;;8.03;3.47;;;4.30;76.00;;;3.37;73.03;99905.56;5125626;27;20949;-82
2024/01/27 10:09:11;;;;;;;9.77;3.70;;;4.40;75.70;;;3.27;72.51;99899.28;5124962;27;20538;-82
2024/01/27 10:11:43;;;;;;;6.33;3.60;;;4.40;75.20;;;3.26;72.43;99908.25;5140684;27;20447;-82
2024/01/27 10:14:10;;;;;;;6.50;3.70;;;4.30;75.10;;;3.35;73.30;99896.84;5129094;27;20452;-82
2024/01/27 10:16:42;;;;;;;10.30;3.57;;;4.40;75.40;;;3.42;72.53;99894.53;5128502;27;21306;-81
2024/01/27 10:19:18;;;;;;;5.97;3.10;;;4.50;75.20;;;3.40;72.07;99883.94;5149581;27;20444;-83
2024/01/27 10:21:48;;;;;;;6.77;2.87;;;4.50;75.30;;;3.57;72.01;99899.59;5147326;27;20468;-82
2024/01/27 10:24:15;;;;;;;6.43;3.57;;;4.50;75.00;;;3.32;72.32;99870.38;5133064;27;20445;-83
2024/01/27 10:26:47;;;;;;;6.90;2.90;;;4.50;74.90;;;3.00;71.35;99817.69;5147736;27;20465;-82
2024/01/27 10:29:15;;;;;;;6.40;3.30;;;4.60;74.70;;;3.74;71.43;99907.09;5144053;27;20535;-82
2024/01/27 10:31:43;;;;;;;10.17;3.17;;;4.70;74.80;;;3.69;71.53;99899.44;5126110;27;20453;-81
2024/01/27 10:34:14;;;;;;;9.30;3.27;;;4.70;74.50;;;3.73;71.36;99908.06;5133573;27;20837;-78